createdAt,value
2023-02-12T00:02:24.437Z,26.85
2023-02-12T00:07:30.485Z,27.42
2023-02-12T00:12:35.732Z,30.80
2023-02-12T00:17:39.116Z,26.95
2023-02-12T00:22:42.501Z,29.40
2023-02-12T00:27:47.346Z,31.08
2023-02-12T00:32:50.801Z,29.30
2023-02-12T00:37:54.194Z,28.23
2023-02-12T00:42:58.968Z,29.52
2023-02-12T00:48:02.396Z,32.10
2023-02-12T00:53:06.008Z,28.63
2023-02-12T00:58:11.197Z,33.78
2023-02-12T01:03:14.778Z,27.30
2023-02-12T01:08:20.574Z,28.95
2023-02-12T01:13:26.029Z,25.83
2023-02-12T01:18:29.672Z,28.27
2023-02-12T01:23:33.309Z,28.88
2023-02-12T01:28:38.083Z,26.52
2023-02-12T01:33:42.064Z,30.40
2023-02-12T01:38:45.614Z,25.60
2023-02-12T01:44:09.596Z,25.00
2023-02-12T01:49:17.768Z,26.88
2023-02-12T01:54:23.316Z,22.13
2023-02-12T01:59:28.702Z,28.42
2023-02-12T02:04:37.200Z,27.63
2023-02-12T02:09:41.314Z,24.40
2023-02-12T02:14:47.374Z,27.23
2023-02-12T02:20:31.739Z,28.50
2023-02-12T02:26:03.069Z,26.60
2023-02-12T02:31:16.107Z,25.92
2023-02-12T02:41:36.163Z,25.77
2023-02-12T02:46:46.893Z,24.77
2023-02-12T02:51:56.402Z,20.15
2023-02-12T02:57:13.599Z,25.50
2023-02-12T03:02:22.738Z,23.65
2023-02-12T03:07:29.385Z,25.20
2023-02-12T03:12:37.873Z,26.35
2023-02-12T03:17:46.898Z,25.40
2023-02-12T03:22:55.352Z,23.00
2023-02-12T03:28:04.842Z,20.05
2023-02-12T03:33:18.127Z,25.23
2023-02-12T03:38:37.927Z,28.58
2023-02-12T03:43:50.869Z,34.80
2023-02-12T03:49:01.973Z,23.45
2023-02-12T03:54:06.944Z,21.35
2023-02-12T03:59:11.110Z,24.40
2023-02-12T04:04:16.262Z,27.88
2023-02-12T04:09:20.949Z,28.85
2023-02-12T04:14:32.121Z,26.00
2023-02-12T04:19:53.552Z,21.38
2023-02-12T04:25:08.061Z,24.13
2023-02-12T04:30:21.604Z,27.98
2023-02-12T04:35:32.455Z,29.13
2023-02-12T04:40:37.043Z,23.30
2023-02-12T04:45:40.627Z,25.23
2023-02-12T04:50:46.636Z,20.52
2023-02-12T04:55:50.766Z,19.83
2023-02-12T05:00:54.131Z,25.30
2023-02-12T05:06:03.892Z,21.02
2023-02-12T05:11:09.058Z,22.75
2023-02-12T05:16:12.456Z,24.40
2023-02-12T05:21:17.867Z,26.23
2023-02-12T05:26:23.091Z,33.97
2023-02-12T05:31:26.627Z,23.40
2023-02-12T05:36:31.638Z,27.23
2023-02-12T05:41:35.765Z,25.95
2023-02-12T05:46:39.945Z,26.30
2023-02-12T05:51:44.760Z,27.08
2023-02-12T05:56:49.210Z,25.95
2023-02-12T06:01:53.396Z,30.20
2023-02-12T06:06:58.170Z,26.55
2023-02-12T06:12:01.516Z,23.48
2023-02-12T06:17:05.240Z,22.38
2023-02-12T06:22:10.162Z,28.55
2023-02-12T06:27:13.777Z,19.58
2023-02-12T06:32:17.196Z,26.38
2023-02-12T06:37:21.964Z,26.13
2023-02-12T06:42:25.384Z,28.52
2023-02-12T06:47:28.966Z,23.27
2023-02-12T06:52:33.716Z,20.17
2023-02-12T06:57:37.158Z,21.17
2023-02-12T07:02:40.584Z,23.50
2023-02-12T07:07:45.347Z,23.40
2023-02-12T07:12:49.021Z,24.70
2023-02-12T07:17:52.435Z,29.05
2023-02-12T07:22:57.621Z,19.48
2023-02-12T07:28:01.626Z,18.42
2023-02-12T07:33:05.390Z,20.73
2023-02-12T07:38:10.108Z,22.02
2023-02-12T07:43:14.567Z,19.38
2023-02-12T07:48:17.955Z,23.65
2023-02-12T07:53:22.948Z,23.50
2023-02-12T07:58:26.311Z,24.63
2023-02-12T08:03:30.197Z,28.73
2023-02-12T08:08:34.976Z,29.75
2023-02-12T08:13:39.049Z,23.90
2023-02-12T08:18:43.188Z,27.25
2023-02-12T08:23:50.587Z,22.70
2023-02-12T08:28:56.479Z,20.45
2023-02-12T08:34:00.810Z,27.08
2023-02-12T08:39:06.727Z,27.73
2023-02-12T08:44:10.968Z,30.02
2023-02-12T08:49:16.344Z,22.98
2023-02-12T08:54:24.104Z,22.73
2023-02-12T08:59:28.481Z,28.30
2023-02-12T09:04:32.189Z,29.38
2023-02-12T09:09:36.897Z,37.15
2023-02-12T09:14:40.280Z,20.42
2023-02-12T09:19:43.864Z,24.13
2023-02-12T09:24:48.559Z,32.92
2023-02-12T09:29:51.928Z,32.50
2023-02-12T09:34:55.345Z,23.45
2023-02-12T09:40:00.148Z,30.83
2023-02-12T09:45:11.729Z,25.02
2023-02-12T09:50:32.920Z,26.73
2023-02-12T09:55:37.990Z,31.77
2023-02-12T10:00:41.406Z,26.23
2023-02-12T10:05:49.939Z,31.77
2023-02-12T10:11:00.802Z,27.33
2023-02-12T10:16:14.312Z,25.20
2023-02-12T10:26:31.415Z,26.27
2023-02-12T10:31:38.839Z,25.05
2023-02-12T10:36:44.638Z,24.95
2023-02-12T10:41:56.158Z,22.67
2023-02-12T10:46:59.540Z,17.88
2023-02-12T10:52:11.796Z,24.52
2023-02-12T10:57:21.914Z,21.38
2023-02-12T11:02:28.129Z,18.33
2023-02-12T11:07:49.131Z,22.40
2023-02-12T11:12:54.784Z,18.33
2023-02-12T11:18:00.680Z,14.88
2023-02-12T11:23:06.404Z,23.05
2023-02-12T11:28:20.233Z,22.60
2023-02-12T11:33:32.785Z,17.85
2023-02-12T11:38:39.802Z,20.63
2023-02-12T11:43:45.969Z,15.32
2023-02-12T11:48:50.037Z,13.98
2023-02-12T11:53:55.869Z,20.25
2023-02-12T11:59:18.798Z,13.85
2023-02-12T12:04:25.668Z,17.88
2023-02-12T12:09:37.363Z,18.52
2023-02-12T12:15:04.692Z,17.55
2023-02-12T12:20:16.918Z,11.05
2023-02-12T12:25:26.388Z,13.70
2023-02-12T12:30:40.766Z,19.00
2023-02-12T12:35:52.810Z,14.18
2023-02-12T12:41:04.853Z,15.88
2023-02-12T12:46:35.467Z,21.98
2023-02-12T12:52:00.961Z,18.55
2023-02-12T12:57:16.780Z,13.52
2023-02-12T13:03:03.233Z,11.93
2023-02-12T13:08:20.253Z,13.82
2023-02-12T13:13:32.170Z,16.38
2023-02-12T13:18:51.610Z,15.23
2023-02-12T13:23:59.211Z,15.75
2023-02-12T13:29:09.225Z,15.82
2023-02-12T13:34:18.207Z,10.50
2023-02-12T13:39:32.212Z,12.32
2023-02-12T13:44:44.307Z,12.73
2023-02-12T13:49:54.999Z,11.18
2023-02-12T13:55:13.078Z,9.85
2023-02-12T14:00:53.565Z,13.27
2023-02-12T14:06:16.521Z,17.27
2023-02-12T14:11:23.364Z,11.48
2023-02-12T14:16:41.180Z,9.07
2023-02-12T14:21:45.985Z,12.32
2023-02-12T14:26:49.436Z,14.38
2023-02-12T14:31:52.882Z,10.05
2023-02-12T14:42:56.428Z,12.95
2023-02-12T14:48:00.257Z,11.88
2023-02-12T14:53:14.953Z,15.95
2023-02-12T14:58:22.186Z,8.68
2023-02-12T15:03:33.052Z,12.70
2023-02-12T15:08:44.936Z,9.52
2023-02-12T15:13:55.748Z,16.70
2023-02-12T15:19:03.951Z,11.35
2023-02-12T15:24:08.774Z,13.02
2023-02-12T15:29:23.175Z,8.45
2023-02-12T15:34:29.483Z,14.15
2023-02-12T15:39:40.829Z,15.07
2023-02-12T15:44:45.906Z,14.15
2023-02-12T15:49:49.494Z,11.07
2023-02-12T15:54:53.399Z,14.95
2023-02-12T16:00:03.795Z,14.57
2023-02-12T16:05:08.543Z,14.10
2023-02-12T16:10:16.420Z,19.40
2023-02-12T16:15:31.301Z,17.33
2023-02-12T16:20:34.964Z,13.65
2023-02-12T16:25:40.331Z,18.23
2023-02-12T16:30:48.421Z,14.93
2023-02-12T16:36:02.318Z,20.95
2023-02-12T16:41:21.658Z,22.33
2023-02-12T16:46:27.947Z,22.13
2023-02-12T16:51:33.689Z,22.60
2023-02-12T16:56:39.625Z,22.65
2023-02-12T17:01:58.260Z,26.42
2023-02-12T17:07:01.644Z,29.38
2023-02-12T17:12:05.472Z,29.48
2023-02-12T17:17:10.557Z,24.25
2023-02-12T17:22:23.174Z,20.95
2023-02-12T17:27:26.553Z,26.53
2023-02-12T17:32:31.299Z,29.13
2023-02-12T17:37:34.927Z,26.52
2023-02-12T17:42:39.175Z,22.10
2023-02-12T17:47:44.003Z,25.08
2023-02-12T17:52:47.655Z,28.92
2023-02-12T17:57:54.508Z,26.60
2023-02-12T18:02:59.705Z,27.65
2023-02-12T18:08:03.606Z,32.63
2023-02-12T18:13:07.033Z,29.48
2023-02-12T18:18:12.137Z,29.55
2023-02-12T18:23:15.904Z,29.13
2023-02-12T18:28:19.702Z,26.63
2023-02-12T18:33:25.030Z,29.00
2023-02-12T18:38:28.833Z,30.58
2023-02-12T18:43:34.191Z,25.50
2023-02-12T18:48:39.376Z,29.38
2023-02-12T18:53:42.930Z,26.27
2023-02-12T18:58:46.594Z,28.98
2023-02-12T19:03:55.129Z,26.25
2023-02-12T19:08:59.853Z,26.55
2023-02-12T19:14:03.315Z,28.58
2023-02-12T19:19:08.177Z,26.10
2023-02-12T19:24:13.608Z,28.45
2023-02-12T19:29:18.256Z,25.08
2023-02-12T19:34:24.827Z,21.40
2023-02-12T19:39:28.358Z,26.13
2023-02-12T19:44:32.318Z,28.20
2023-02-12T19:49:38.003Z,27.05
2023-02-12T19:54:41.437Z,30.13
2023-02-12T19:59:46.432Z,26.35
2023-02-12T20:04:51.368Z,29.95
2023-02-12T20:09:55.018Z,29.33
2023-02-12T20:15:00.958Z,33.03
2023-02-12T20:20:07.323Z,32.47
2023-02-12T20:25:10.775Z,29.10
2023-02-12T20:30:15.870Z,36.53
2023-02-12T20:35:20.672Z,28.13
2023-02-12T20:40:24.108Z,33.25
2023-02-12T20:45:28.305Z,27.65
2023-02-12T20:50:33.919Z,28.73
2023-02-12T20:55:37.290Z,27.70
2023-02-12T21:00:40.982Z,24.42
2023-02-12T21:05:45.993Z,29.98
2023-02-12T21:10:49.403Z,26.15
2023-02-12T21:15:55.056Z,25.42
2023-02-12T21:21:03.810Z,34.97
2023-02-12T21:26:08.921Z,23.88
2023-02-12T21:31:16.130Z,29.92
2023-02-12T21:36:22.909Z,25.17
2023-02-12T21:41:28.702Z,26.10
2023-02-12T21:46:32.372Z,22.98
2023-02-12T21:51:38.824Z,26.10
2023-02-12T21:56:43.940Z,28.88
2023-02-12T22:01:49.297Z,31.30
2023-02-12T22:06:54.264Z,22.80
2023-02-12T22:11:57.669Z,27.17
2023-02-12T22:17:01.373Z,26.02
2023-02-12T22:22:06.102Z,30.92
2023-02-12T22:27:09.561Z,34.33
2023-02-12T22:32:13.028Z,32.88
2023-02-12T22:37:17.974Z,28.15
2023-02-12T22:42:21.366Z,30.25
2023-02-12T22:47:25.535Z,28.55
2023-02-12T22:52:32.872Z,28.48
2023-02-12T22:57:36.248Z,26.58
2023-02-12T23:02:39.685Z,24.45
2023-02-12T23:07:44.479Z,26.50
2023-02-12T23:12:47.898Z,33.05
2023-02-12T23:17:52.389Z,23.25
2023-02-12T23:22:57.114Z,23.17
2023-02-12T23:28:00.879Z,23.70
2023-02-12T23:33:04.658Z,25.38
2023-02-12T23:38:09.476Z,19.63
2023-02-12T23:43:12.949Z,23.92
2023-02-12T23:48:17.160Z,24.45
2023-02-12T23:53:22.439Z,22.08
2023-02-12T23:58:25.812Z,23.05
